Time;durP1;ratioP1;P1;durP2;ratioP2;P2;SDS_P1;SDS_P2;PMS_P1;PMS_P2;Temp;Humidity;BMP_temperature;BMP_pressure;BME280_temperature;BME280_humidity;BME280_pressure;Samples;Min_cycle;Max_cycle;Signal;HPM_P1;HPM_P2
2023/05/22 00:02:01;;;;;;;;;;;;;;;13.99;100.00;101644.50;5066643;28;19913;-73
2023/05/22 00:04:28;;;;;;;;;;;;;;;13.94;100.00;101647.84;5066368;28;19995;-74
2023/05/22 00:06:54;;;;;;;;;;;;;;;13.94;100.00;101649.75;5051520;28;19912;-75
2023/05/22 00:09:19;;;;;;;;;;;;;;;14.02;100.00;101644.09;5067395;28;20392;-74
2023/05/22 00:11:45;;;;;;;;;;;;;;;13.97;100.00;101644.69;5048315;28;19922;-75
2023/05/22 00:14:12;;;;;;;;;;;;;;;13.97;100.00;101652.09;5069212;28;19956;-74
2023/05/22 00:16:38;;;;;;;;;;;;;;;13.92;100.00;101649.13;5067019;28;19916;-74
2023/05/22 00:19:03;;;;;;;;;;;;;;;13.92;100.00;101641.69;5062954;28;19915;-74
2023/05/22 00:21:33;;;;;;;;;;;;;;;13.88;100.00;101650.56;5065102;28;19920;-74
2023/05/22 00:23:58;;;;;;;;;;;;;;;13.85;100.00;101650.94;5064313;28;19920;-73
2023/05/22 00:26:24;;;;;;;;;;;;;;;13.87;100.00;101641.44;5052456;28;19912;-74
2023/05/22 00:28:49;;;;;;;;;;;;;;;13.83;100.00;101633.78;5063899;28;20299;-74
2023/05/22 00:31:15;;;;;;;;;;;;;;;13.81;100.00;101631.22;5047863;28;20058;-72
2023/05/22 00:33:40;;;;;;;;;;;;;;;13.80;100.00;101625.91;5064067;28;20359;-73
2023/05/22 00:36:06;;;;;;;;;;;;;;;13.83;100.00;101623.59;5048646;28;19951;-73
2023/05/22 00:38:32;;;;;;;;;;;;;;;13.81;100.00;101614.69;5066877;28;19917;-73
2023/05/22 00:41:02;;;;;;;;;;;;;;;13.82;100.00;101619.13;5050760;28;19916;-74
2023/05/22 00:43:27;;;;;;;;;;;;;;;13.79;100.00;101613.19;5066105;28;20424;-73
2023/05/22 00:45:55;;;;;;;;;;;;;;;13.82;100.00;101615.56;5064583;28;20066;-74
2023/05/22 00:48:21;;;;;;;;;;;;;;;13.75;100.00;101607.22;5048247;28;19912;-75
2023/05/22 00:50:47;;;;;;;;;;;;;;;13.78;100.00;101590.28;5062700;28;19927;-75
2023/05/22 00:53:14;;;;;;;;;;;;;;;13.77;100.00;101582.25;5064878;28;19935;-75
2023/05/22 00:55:39;;;;;;;;;;;;;;;13.74;100.00;101588.16;5065424;28;20001;-74
2023/05/22 00:58:06;;;;;;;;;;;;;;;13.73;100.00;101600.22;5067651;28;19961;-74
2023/05/22 01:00:33;;;;;;;;;;;;;;;13.70;100.00;101606.09;5063777;28;19912;-72
2023/05/22 01:03:00;;;;;;;;;;;;;;;13.74;100.00;101604.66;5050245;28;19934;-72
2023/05/22 01:05:25;;;;;;;;;;;;;;;13.68;100.00;101589.81;5044955;28;20368;-72
2023/05/22 01:07:52;;;;;;;;;;;;;;;13.73;100.00;101578.19;5068499;28;20003;-72
2023/05/22 01:10:17;;;;;;;;;;;;;;;13.68;100.00;101573.28;5048318;28;19970;-72
2023/05/22 01:13:00;;;;;;;;;;;;;;;13.65;100.00;101578.31;5063557;28;19916;-71
2023/05/22 01:15:40;;;;;;;;;;;;;;;13.61;100.00;101561.34;5065643;28;20355;-72
2023/05/22 01:18:09;;;;;;;;;;;;;;;13.63;100.00;101564.78;5050543;28;19959;-72
2023/05/22 01:20:42;;;;;;;;;;;;;;;13.62;100.00;101582.31;5065214;28;19912;-72
2023/05/22 01:23:13;;;;;;;;;;;;;;;13.62;100.00;101568.56;5065985;28;19964;-72
2023/05/22 01:25:57;;;;;;;;;;;;;;;13.62;100.00;101557.53;5042636;28;19912;-72
2023/05/22 01:28:23;;;;;;;;;;;;;;;13.56;100.00;101557.50;5061996;28;19913;-71
2023/05/22 01:30:57;;;;;;;;;;;;;;;13.61;100.00;101564.09;5063637;28;19917;-72
2023/05/22 01:33:26;;;;;;;;;;;;;;;13.58;100.00;101569.16;5065145;28;20303;-70
2023/05/22 01:35:53;;;;;;;;;;;;;;;13.58;100.00;101560.91;5063699;28;20324;-71
2023/05/22 01:38:20;;;;;;;;;;;;;;;13.59;100.00;101568.09;5063535;28;19916;-71
2023/05/22 01:40:45;;;;;;;;;;;;;;;13.55;100.00;101580.59;5041317;28;19999;-71
2023/05/22 01:43:12;;;;;;;;;;;;;;;13.54;100.00;101579.72;5064980;28;20415;-71
2023/05/22 01:45:38;;;;;;;;;;;;;;;13.53;100.00;101569.78;5065529;28;20296;-72
2023/05/22 01:48:03;;;;;;;;;;;;;;;13.52;100.00;101570.84;5065083;28;19916;-71
2023/05/22 01:50:29;;;;;;;;;;;;;;;13.49;100.00;101573.09;5068289;28;19975;-72
2023/05/22 01:53:03;;;;;;;;;;;;;;;13.45;100.00;101567.16;5065205;28;20383;-71
2023/05/22 01:55:35;;;;;;;;;;;;;;;13.41;100.00;101565.00;5047861;28;19912;-71
2023/05/22 01:58:10;;;;;;;;;;;;;;;13.41;100.00;101562.25;5064432;28;19916;-71
2023/05/22 02:00:40;;;;;;;;;;;;;;;13.46;100.00;101563.34;5064301;28;19912;-71
2023/05/22 02:03:07;;;;;;;;;;;;;;;13.44;100.00;101567.38;5047752;28;19944;-71
2023/05/22 02:05:37;;;;;;;;;;;;;;;13.44;100.00;101559.13;5068455;28;19913;-71
2023/05/22 02:08:03;;;;;;;;;;;;;;;13.39;100.00;101572.63;5065302;28;20371;-71
2023/05/22 02:10:29;;;;;;;;;;;;;;;13.38;100.00;101576.38;5067002;28;19917;-71
2023/05/22 02:12:54;;;;;;;;;;;;;;;13.38;100.00;101570.88;5065971;28;20007;-72
2023/05/22 02:15:21;;;;;;;;;;;;;;;13.35;100.00;101574.88;5062822;28;19976;-71
2023/05/22 02:17:48;;;;;;;;;;;;;;;13.32;100.00;101567.03;5063203;28;19916;-71
2023/05/22 02:20:14;;;;;;;;;;;;;;;13.25;100.00;101568.88;5050818;28;19959;-71
2023/05/22 02:22:40;;;;;;;;;;;;;;;13.27;100.00;101563.16;5063568;28;19920;-71
2023/05/22 02:25:08;;;;;;;;;;;;;;;13.22;100.00;101557.41;5064020;28;19963;-71
2023/05/22 02:27:33;;;;;;;;;;;;;;;13.22;100.00;101557.41;5063820;28;21652;-71
2023/05/22 02:30:00;;;;;;;;;;;;;;;13.18;100.00;101559.69;5044930;28;19986;-74
2023/05/22 02:32:27;;;;;;;;;;;;;;;13.13;100.00;101562.19;5060398;28;20273;-74
2023/05/22 02:34:52;;;;;;;;;;;;;;;13.13;100.00;101558.59;5034551;28;19913;-74
2023/05/22 02:37:17;;;;;;;;;;;;;;;13.11;100.00;101547.78;5066879;28;19943;-73
2023/05/22 02:39:43;;;;;;;;;;;;;;;13.07;100.00;101560.22;5048252;28;19999;-74
2023/05/22 02:42:08;;;;;;;;;;;;;;;13.07;100.00;101553.88;5072412;28;20373;-73
2023/05/22 02:44:33;;;;;;;;;;;;;;;13.10;100.00;101558.97;5067068;28;19916;-74
2023/05/22 02:46:59;;;;;;;;;;;;;;;13.09;100.00;101558.16;5070521;28;19912;-74
2023/05/22 02:49:24;;;;;;;;;;;;;;;13.03;100.00;101553.41;5068132;28;19916;-75
2023/05/22 02:51:49;;;;;;;;;;;;;;;12.97;100.00;101545.09;5067353;28;20009;-74
2023/05/22 02:54:15;;;;;;;;;;;;;;;12.96;100.00;101537.91;5068556;28;19912;-74
2023/05/22 02:56:41;;;;;;;;;;;;;;;12.90;100.00;101546.88;5049792;28;19912;-75
2023/05/22 02:59:06;;;;;;;;;;;;;;;12.86;100.00;101551.09;5068301;28;19920;-74
2023/05/22 03:01:33;;;;;;;;;;;;;;;12.83;100.00;101543.22;5065795;28;19917;-74
2023/05/22 03:03:58;;;;;;;;;;;;;;;12.83;100.00;101549.59;5055345;28;19916;-74
2023/05/22 03:06:24;;;;;;;;;;;;;;;12.84;100.00;101542.16;5067187;28;19916;-74
2023/05/22 03:08:49;;;;;;;;;;;;;;;12.87;100.00;101542.63;5051380;28;19974;-74
2023/05/22 03:11:15;;;;;;;;;;;;;;;12.96;100.00;101537.91;5042784;28;19935;-74
2023/05/22 03:13:40;;;;;;;;;;;;;;;13.00;100.00;101544.69;5062747;28;20011;-74
2023/05/22 03:16:05;;;;;;;;;;;;;;;12.98;100.00;101542.13;5066657;28;20398;-74
2023/05/22 03:18:31;;;;;;;;;;;;;;;13.01;100.00;101540.88;5067033;28;19959;-75
2023/05/22 03:20:56;;;;;;;;;;;;;;;12.99;100.00;101529.25;5049368;28;19916;-74
2023/05/22 03:23:21;;;;;;;;;;;;;;;13.01;100.00;101539.00;5067261;28;19912;-74
2023/05/22 03:25:47;;;;;;;;;;;;;;;13.10;100.00;101537.84;5051016;28;19978;-74
2023/05/22 03:28:13;;;;;;;;;;;;;;;13.07;100.00;101537.38;5046617;28;20414;-74
2023/05/22 03:30:38;;;;;;;;;;;;;;;13.09;100.00;101543.53;5067633;28;20304;-74
2023/05/22 03:33:04;;;;;;;;;;;;;;;13.06;100.00;101535.66;5064709;28;19966;-74
2023/05/22 03:35:30;;;;;;;;;;;;;;;13.06;100.00;101538.41;5052855;28;20279;-74
2023/05/22 03:37:55;;;;;;;;;;;;;;;13.05;100.00;101531.22;5053249;28;19925;-74
2023/05/22 03:40:20;;;;;;;;;;;;;;;13.01;100.00;101529.88;5065935;28;20371;-74
2023/05/22 03:42:46;;;;;;;;;;;;;;;13.02;100.00;101532.44;5061683;28;20230;-74
2023/05/22 03:45:11;;;;;;;;;;;;;;;13.01;100.00;101532.63;5065245;28;19916;-75
2023/05/22 03:47:37;;;;;;;;;;;;;;;13.01;100.00;101527.13;5068013;28;19908;-75
2023/05/22 03:50:03;;;;;;;;;;;;;;;13.07;100.00;101531.88;5064984;28;20439;-75
2023/05/22 03:52:28;;;;;;;;;;;;;;;13.02;100.00;101523.38;5069865;28;20331;-73
2023/05/22 03:54:53;;;;;;;;;;;;;;;13.04;100.00;101530.38;5067369;28;20438;-75
2023/05/22 03:57:19;;;;;;;;;;;;;;;12.98;100.00;101530.31;5052473;28;19913;-75
2023/05/22 03:59:45;;;;;;;;;;;;;;;13.03;100.00;101527.81;5046797;28;20372;-74
2023/05/22 04:02:11;;;;;;;;;;;;;;;13.01;100.00;101524.38;5048822;28;20347;-74
2023/05/22 04:04:37;;;;;;;;;;;;;;;13.04;100.00;101526.75;5071427;28;19916;-75
2023/05/22 04:07:06;;;;;;;;;;;;;;;13.06;100.00;101524.66;5070173;28;19938;-74
2023/05/22 04:09:33;;;;;;;;;;;;;;;13.03;100.00;101520.41;5066054;28;19926;-75
2023/05/22 04:12:00;;;;;;;;;;;;;;;13.06;100.00;101519.16;5068933;28;19924;-75
2023/05/22 04:14:25;;;;;;;;;;;;;;;13.13;100.00;101525.59;5049321;28;19973;-75
2023/05/22 04:16:52;;;;;;;;;;;;;;;13.13;100.00;101533.84;5048380;28;20007;-75
2023/05/22 04:19:17;;;;;;;;;;;;;;;13.21;100.00;101537.31;5040100;28;20070;-74
2023/05/22 04:21:43;;;;;;;;;;;;;;;13.21;100.00;101536.44;5067131;28;20423;-75
2023/05/22 04:24:09;;;;;;;;;;;;;;;13.18;100.00;101532.19;5065750;28;20317;-74
2023/05/22 04:26:36;;;;;;;;;;;;;;;13.24;100.00;101541.56;5062414;28;19920;-72
2023/05/22 04:29:02;;;;;;;;;;;;;;;13.31;100.00;101532.31;5065650;28;19920;-72
2023/05/22 04:31:27;;;;;;;;;;;;;;;13.36;100.00;101537.22;5062715;28;19964;-72
2023/05/22 04:33:54;;;;;;;;;;;;;;;13.38;100.00;101538.72;5067163;28;20360;-73
2023/05/22 04:36:21;;;;;;;;;;;;;;;13.44;100.00;101542.59;5043259;28;19919;-73
2023/05/22 04:38:49;;;;;;;;;;;;;;;13.46;100.00;101535.81;5067382;28;19916;-72
2023/05/22 04:41:16;;;;;;;;;;;;;;;13.59;100.00;101537.81;5048232;28;19955;-73
2023/05/22 04:43:42;;;;;;;;;;;;;;;13.55;100.00;101544.81;5067111;28;19920;-73
2023/05/22 04:46:08;;;;;;;;;;;;;;;13.54;100.00;101532.94;5065597;28;20387;-71
2023/05/22 04:48:35;;;;;;;;;;;;;;;13.69;100.00;101536.44;5066314;28;19920;-72
2023/05/22 04:51:03;;;;;;;;;;;;;;;13.70;100.00;101542.78;5068619;28;19920;-72
2023/05/22 04:53:29;;;;;;;;;;;;;;;13.73;100.00;101547.91;5046526;28;19919;-72
2023/05/22 04:55:55;;;;;;;;;;;;;;;13.84;100.00;101545.44;5065038;28;20308;-72
2023/05/22 04:58:20;;;;;;;;;;;;;;;13.89;100.00;101542.94;5048006;28;19982;-72
2023/05/22 05:00:46;;;;;;;;;;;;;;;13.89;100.00;101545.69;5065049;28;19961;-72
2023/05/22 05:03:11;;;;;;;;;;;;;;;13.92;100.00;101542.53;5063263;28;20396;-72
2023/05/22 05:05:38;;;;;;;;;;;;;;;14.02;100.00;101542.16;5050071;28;20007;-72
2023/05/22 05:08:03;;;;;;;;;;;;;;;14.04;100.00;101540.06;5065069;28;19912;-72
2023/05/22 05:10:28;;;;;;;;;;;;;;;14.18;100.00;101548.19;5050377;28;20330;-73
2023/05/22 05:12:54;;;;;;;;;;;;;;;14.24;100.00;101541.06;5066187;28;19912;-71
2023/05/22 05:15:21;;;;;;;;;;;;;;;14.37;100.00;101541.13;5066827;28;19950;-72
2023/05/22 05:17:46;;;;;;;;;;;;;;;14.51;100.00;101548.41;5047391;28;19916;-72
2023/05/22 05:20:13;;;;;;;;;;;;;;;14.53;100.00;101541.63;5069729;28;20261;-72
2023/05/22 05:22:39;;;;;;;;;;;;;;;14.56;100.00;101551.41;5043782;28;19961;-71
2023/05/22 05:25:04;;;;;;;;;;;;;;;14.55;100.00;101544.16;5068490;28;19920;-72
2023/05/22 05:27:29;;;;;;;;;;;;;;;14.63;100.00;101550.34;5067367;28;19916;-71
2023/05/22 05:29:55;;;;;;;;;;;;;;;14.69;100.00;101556.94;5064644;28;19921;-72
2023/05/22 05:32:20;;;;;;;;;;;;;;;14.64;100.00;101559.47;5065804;28;20352;-72
2023/05/22 05:34:45;;;;;;;;;;;;;;;14.59;100.00;101568.38;5066090;28;19916;-72
2023/05/22 05:37:10;;;;;;;;;;;;;;;14.66;100.00;101569.25;5050479;28;19959;-72
2023/05/22 05:39:36;;;;;;;;;;;;;;;14.66;100.00;101565.63;5064867;28;19927;-72
2023/05/22 05:42:01;;;;;;;;;;;;;;;14.61;100.00;101566.25;5068411;28;19913;-72
2023/05/22 05:44:26;;;;;;;;;;;;;;;14.63;100.00;101568.81;5045884;28;19961;-72
2023/05/22 05:46:52;;;;;;;;;;;;;;;14.68;100.00;101577.31;5045300;28;19912;-72
2023/05/22 05:49:18;;;;;;;;;;;;;;;14.71;100.00;101582.41;5063626;28;20376;-72
2023/05/22 05:51:43;;;;;;;;;;;;;;;14.77;100.00;101576.91;5067254;28;19985;-73
2023/05/22 05:54:08;;;;;;;;;;;;;;;14.76;100.00;101578.00;5049307;28;19916;-72
2023/05/22 05:56:34;;;;;;;;;;;;;;;14.84;100.00;101577.78;5064617;28;19919;-72
2023/05/22 05:58:59;;;;;;;;;;;;;;;14.86;100.00;101583.97;5067460;28;19939;-71
2023/05/22 06:01:25;;;;;;;;;;;;;;;14.91;100.00;101583.34;5062890;28;19916;-71
2023/05/22 06:03:51;;;;;;;;;;;;;;;14.94;100.00;101586.53;5050982;28;19947;-72
2023/05/22 06:06:16;;;;;;;;;;;;;;;14.96;100.00;101586.31;5067265;28;19916;-72
2023/05/22 06:08:42;;;;;;;;;;;;;;;15.20;100.00;101583.84;5064474;28;20012;-72
2023/05/22 06:11:07;;;;;;;;;;;;;;;15.26;100.00;101582.16;5063823;28;19926;-71
2023/05/22 06:13:32;;;;;;;;;;;;;;;15.54;100.00;101585.63;5069788;28;19919;-72
2023/05/22 06:15:58;;;;;;;;;;;;;;;15.93;100.00;101580.06;5065810;28;19973;-72
2023/05/22 06:18:24;;;;;;;;;;;;;;;15.90;100.00;101575.00;5069749;28;19912;-72
2023/05/22 06:20:49;;;;;;;;;;;;;;;16.18;100.00;101583.88;5068379;28;20386;-74
2023/05/22 06:23:15;;;;;;;;;;;;;;;16.34;100.00;101586.19;5068157;28;19912;-72
2023/05/22 06:25:40;;;;;;;;;;;;;;;16.65;100.00;101595.47;5070470;28;19912;-72
2023/05/22 06:28:05;;;;;;;;;;;;;;;16.99;98.57;101588.72;5069155;28;20270;-73
2023/05/22 06:30:30;;;;;;;;;;;;;;;17.06;98.47;101595.91;5064829;28;19920;-72
2023/05/22 06:32:56;;;;;;;;;;;;;;;17.29;96.98;101600.91;5051587;28;19939;-72
2023/05/22 06:35:21;;;;;;;;;;;;;;;17.21;97.23;101601.16;5068933;28;19979;-73
2023/05/22 06:37:46;;;;;;;;;;;;;;;17.73;94.81;101598.91;5070595;28;19919;-72
2023/05/22 06:40:12;;;;;;;;;;;;;;;18.10;92.27;101599.84;5071706;28;19922;-72
2023/05/22 06:42:37;;;;;;;;;;;;;;;17.81;93.03;101617.16;5070130;28;20448;-73
2023/05/22 06:45:02;;;;;;;;;;;;;;;17.83;93.62;101624.19;5065811;28;19916;-73
2023/05/22 06:47:28;;;;;;;;;;;;;;;18.18;91.54;101625.38;5066533;28;19970;-72
2023/05/22 06:49:53;;;;;;;;;;;;;;;17.75;92.57;101624.47;5065111;28;19962;-73
2023/05/22 06:52:18;;;;;;;;;;;;;;;17.82;92.30;101632.75;5070353;28;19913;-73
2023/05/22 06:54:43;;;;;;;;;;;;;;;17.57;93.46;101626.31;5065910;28;20337;-72
2023/05/22 06:57:09;;;;;;;;;;;;;;;17.32;94.50;101640.09;5069905;28;19912;-72
2023/05/22 06:59:34;;;;;;;;;;;;;;;17.35;95.34;101636.00;5066534;28;20389;-72
2023/05/22 07:02:00;;;;;;;;;;;;;;;17.29;95.01;101629.44;5049674;28;20380;-72
2023/05/22 07:04:25;;;;;;;;;;;;;;;17.05;97.07;101641.28;5068437;28;20327;-72
2023/05/22 07:06:50;;;;;;;;;;;;;;;17.02;97.12;101627.03;5071389;28;19950;-72
2023/05/22 07:09:17;;;;;;;;;;;;;;;17.48;97.25;101634.03;5065824;28;20338;-72
2023/05/22 07:11:43;;;;;;;;;;;;;;;17.96;94.49;101637.09;5067052;28;19916;-72
2023/05/22 07:14:11;;;;;;;;;;;;;;;18.06;93.66;101642.97;5049145;28;20292;-72
2023/05/22 07:16:36;;;;;;;;;;;;;;;18.43;91.97;101633.69;5047902;28;19916;-73
2023/05/22 07:19:02;;;;;;;;;;;;;;;18.60;89.40;101643.09;5069043;28;19912;-72
2023/05/22 07:21:30;;;;;;;;;;;;;;;18.72;88.38;101649.63;5066372;28;20022;-72
2023/05/22 07:23:55;;;;;;;;;;;;;;;18.69;88.41;101648.16;5069123;28;20290;-73
2023/05/22 07:26:21;;;;;;;;;;;;;;;18.90;88.30;101642.09;5064974;28;20716;-72
2023/05/22 07:28:46;;;;;;;;;;;;;;;19.14;87.31;101632.81;5068864;28;20390;-73
2023/05/22 07:31:12;;;;;;;;;;;;;;;18.71;88.62;101637.66;5050542;28;19919;-72
2023/05/22 07:33:37;;;;;;;;;;;;;;;18.80;87.90;101624.31;5065239;28;19916;-72
2023/05/22 07:36:02;;;;;;;;;;;;;;;18.99;87.80;101646.25;5063635;28;20279;-72
2023/05/22 07:38:28;;;;;;;;;;;;;;;19.01;87.29;101637.72;5048051;28;20304;-70
2023/05/22 07:40:53;;;;;;;;;;;;;;;18.72;89.21;101644.88;5067939;28;19916;-71
2023/05/22 07:43:18;;;;;;;;;;;;;;;18.74;89.07;101642.72;5064882;28;19922;-71
2023/05/22 07:45:43;;;;;;;;;;;;;;;18.72;89.71;101638.50;5066337;28;19946;-73
2023/05/22 07:48:10;;;;;;;;;;;;;;;18.70;89.09;101627.63;5049852;28;20030;-73
2023/05/22 07:50:35;;;;;;;;;;;;;;;18.55;89.74;101631.84;5068630;28;20027;-73
2023/05/22 07:53:01;;;;;;;;;;;;;;;18.50;89.99;101635.31;5068803;28;20368;-73
2023/05/22 07:55:26;;;;;;;;;;;;;;;18.72;89.39;101635.72;5067262;28;20355;-73
2023/05/22 07:57:51;;;;;;;;;;;;;;;18.75;89.68;101636.09;5046208;28;20284;-73
2023/05/22 08:00:17;;;;;;;;;;;;;;;18.80;88.49;101638.19;5070017;28;19912;-74
2023/05/22 08:02:42;;;;;;;;;;;;;;;18.70;90.27;101640.66;5067259;28;20012;-73
2023/05/22 08:05:08;;;;;;;;;;;;;;;19.17;88.67;101643.47;5065588;28;20007;-73
2023/05/22 08:07:33;;;;;;;;;;;;;;;19.10;87.90;101651.03;5067002;28;19912;-73
2023/05/22 08:10:01;;;;;;;;;;;;;;;19.08;87.88;101657.91;5070130;28;20368;-73
2023/05/22 08:12:27;;;;;;;;;;;;;;;18.76;89.18;101654.47;5066882;28;19963;-73
2023/05/22 08:14:52;;;;;;;;;;;;;;;18.98;89.44;101655.69;5041275;28;19974;-73
2023/05/22 08:17:17;;;;;;;;;;;;;;;19.31;88.40;101653.34;5049230;28;20367;-73
2023/05/22 08:19:42;;;;;;;;;;;;;;;19.66;87.29;101642.38;5049053;28;19999;-73
2023/05/22 08:22:08;;;;;;;;;;;;;;;19.87;85.51;101644.59;5064189;28;20364;-73
2023/05/22 08:24:33;;;;;;;;;;;;;;;19.88;85.97;101637.94;5050625;28;19952;-72
2023/05/22 08:26:59;;;;;;;;;;;;;;;20.19;85.37;101640.44;5067922;28;19916;-72
2023/05/22 08:29:24;;;;;;;;;;;;;;;20.24;83.03;101635.00;5064287;28;20007;-71
2023/05/22 08:31:51;;;;;;;;;;;;;;;20.45;82.91;101629.69;5048388;28;20004;-72
2023/05/22 08:35:20;;;;;;;44.90;22.10;;;;;;;20.59;83.13;101638.66;5059402;28;20392;-72
2023/05/22 08:37:46;;;;;;;51.77;23.33;;;;;;;20.94;82.17;101636.66;5046325;28;20037;-72
2023/05/22 08:40:13;;;;;;;45.90;22.80;;;;;;;21.28;80.42;101632.94;5050493;28;20115;-72
2023/05/22 08:42:38;;;;;;;50.92;23.42;;;;;;;21.36;79.34;101632.53;5051455;28;20028;-71
2023/05/22 08:45:05;;;;;;;50.80;22.37;;;;;;;21.32;78.85;101629.41;5044570;28;20071;-71
2023/05/22 08:47:33;;;;;;;47.47;22.25;;;;;;;21.44;77.97;101621.81;5049331;28;20028;-71
2023/05/22 08:50:00;;;;;;;51.25;21.42;;;;;;;21.53;77.99;101625.06;5059751;28;20115;-71
2023/05/22 08:52:36;;;;;;;52.88;21.50;;;;;;;21.72;77.36;101626.56;5055968;28;20036;-71
2023/05/22 08:55:03;;;;;;;58.65;21.77;;;;;;;21.61;77.29;101628.28;5056555;28;20029;-72
2023/05/22 08:57:30;;;;;;;45.05;21.00;;;;;;;21.68;76.19;101625.38;5055887;28;20070;-72
2023/05/22 08:59:56;;;;;;;44.30;21.60;;;;;;;21.87;76.46;101626.84;5051567;28;20044;-72
2023/05/22 09:02:22;;;;;;;39.23;19.43;;;;;;;22.12;76.39;101624.47;5055091;28;20064;-72
2023/05/22 09:04:47;;;;;;;36.83;20.27;;;;;;;21.39;76.52;101632.88;5058255;28;20075;-72
2023/05/22 09:07:13;;;;;;;36.77;19.47;;;;;;;21.43;77.36;101638.78;5047826;28;20041;-72
2023/05/22 09:09:38;;;;;;;46.20;19.20;;;;;;;22.30;75.56;101633.44;5046551;28;20107;-72
2023/05/22 09:12:09;;;;;;;33.87;18.63;;;;;;;22.51;74.53;101629.06;5057601;28;20056;-72
2023/05/22 09:14:41;;;;;;;34.53;19.60;;;;;;;22.81;71.52;101621.94;5049084;28;20017;-72
2023/05/22 09:17:08;;;;;;;38.40;18.20;;;;;;;22.87;70.31;101631.22;5046958;28;20028;-72
2023/05/22 09:19:34;;;;;;;42.78;18.58;;;;;;;22.99;71.76;101632.78;5057367;28;20041;-72
2023/05/22 09:22:05;;;;;;;33.00;16.90;;;;;;;22.92;70.72;101625.72;5052001;28;20504;-72
2023/05/22 09:24:37;;;;;;;37.58;17.60;;;;;;;23.19;69.46;101626.66;5059045;28;20025;-74
2023/05/22 09:27:05;;;;;;;30.77;15.63;;;;;;;23.41;69.30;101621.88;5052405;28;20063;-74
2023/05/22 09:29:31;;;;;;;36.00;17.10;;;;;;;23.49;68.89;101622.28;5049459;28;20033;-72
2023/05/22 09:31:58;;;;;;;43.00;16.90;;;;;;;23.39;69.20;101618.50;5045344;28;20610;-74
2023/05/22 09:34:27;;;;;;;34.10;17.67;;;;;;;23.48;68.33;101614.13;5046503;28;20049;-74
2023/05/22 09:37:00;;;;;;;29.65;16.23;;;;;;;23.63;67.48;101612.31;5050368;28;20036;-72
2023/05/22 09:39:38;;;;;;;30.52;16.58;;;;;;;23.62;66.89;101618.19;5048457;28;20465;-72
2023/05/22 09:42:04;;;;;;;33.72;16.42;;;;;;;23.91;67.43;101628.84;5047003;28;20021;-73
2023/05/22 09:44:29;;;;;;;36.08;17.13;;;;;;;23.81;67.57;101614.75;5050886;28;20031;-72
2023/05/22 09:46:54;;;;;;;32.37;15.70;;;;;;;24.09;67.59;101613.63;5037648;28;20055;-73
2023/05/22 09:49:20;;;;;;;32.40;15.97;;;;;;;24.13;66.39;101621.25;5038389;28;20036;-72
2023/05/22 09:51:46;;;;;;;33.77;15.80;;;;;;;24.45;64.39;101609.97;5036696;28;20378;-72
2023/05/22 09:54:14;;;;;;;27.55;15.98;;;;;;;24.40;64.31;101619.22;5037018;28;20547;-72
2023/05/22 09:56:42;;;;;;;38.92;16.98;;;;;;;24.22;64.77;101615.97;5038707;28;20037;-73
2023/05/22 09:59:08;;;;;;;40.22;15.90;;;;;;;24.46;64.56;101615.31;5040053;28;20381;-73
2023/05/22 10:01:35;;;;;;;35.15;16.88;;;;;;;24.46;64.73;101617.25;5040580;28;20099;-73
2023/05/22 10:04:03;;;;;;;35.28;16.25;;;;;;;24.33;65.06;101612.97;5036013;28;20036;-72
2023/05/22 10:06:30;;;;;;;42.50;16.85;;;;;;;24.52;65.01;101617.03;5030622;28;20025;-73
2023/05/22 10:09:05;;;;;;;31.30;17.05;;;;;;;24.75;64.14;101615.81;5036290;28;20524;-73
2023/05/22 10:11:32;;;;;;;34.05;16.20;;;;;;;25.09;62.59;101617.09;5037780;28;20056;-73
2023/05/22 10:14:00;;;;;;;30.58;16.02;;;;;;;24.93;62.64;101613.38;5032983;28;20477;-73
2023/05/22 10:16:26;;;;;;;34.72;16.88;;;;;;;25.00;61.99;101610.31;5037962;28;20033;-73
2023/05/22 10:18:52;;;;;;;38.33;17.05;;;;;;;24.70;62.83;101616.59;5037359;28;20480;-73
2023/05/22 10:21:19;;;;;;;40.33;16.60;;;;;;;25.12;62.49;101616.56;5034792;28;20112;-73
2023/05/22 10:23:45;;;;;;;45.30;19.10;;;;;;;25.06;62.22;101610.06;5035900;28;20025;-73
2023/05/22 10:26:11;;;;;;;32.25;18.58;;;;;;;24.87;62.89;101614.47;5036581;28;20030;-73
2023/05/22 10:28:43;;;;;;;49.85;20.38;;;;;;;24.82;63.10;101616.41;5041549;28;20037;-73
2023/05/22 10:31:41;;;;;;;51.42;23.52;;;;;;;24.80;63.51;101610.25;5042895;28;20033;-72
2023/05/22 10:34:10;;;;;;;51.88;24.30;;;;;;;24.83;63.44;101618.09;5039689;28;20037;-72
2023/05/22 10:37:15;;;;;;;57.05;25.08;;;;;;;24.91;63.03;101604.38;5045723;28;20024;-73
2023/05/22 10:39:48;;;;;;;55.85;25.67;;;;;;;24.93;62.50;101607.78;5050303;28;20484;-73
2023/05/22 10:42:13;;;;;;;50.65;24.40;;;;;;;25.13;61.84;101604.22;5048666;28;20090;-73
2023/05/22 10:44:39;;;;;;;50.80;26.40;;;;;;;24.74;62.67;101602.88;5045955;28;20051;-73
2023/05/22 10:47:10;;;;;;;47.30;26.20;;;;;;;24.93;63.13;101609.72;5044804;28;20038;-73
2023/05/22 10:49:35;;;;;;;50.58;26.55;;;;;;;24.95;62.07;101613.09;5047529;28;20423;-73
2023/05/22 10:52:02;;;;;;;50.43;27.40;;;;;;;24.89;62.28;101612.25;5046467;28;20025;-72
2023/05/22 10:54:44;;;;;;;45.60;24.67;;;;;;;24.99;61.64;101619.84;5045605;28;20071;-74
2023/05/22 10:57:14;;;;;;;50.63;25.17;;;;;;;25.04;62.35;101617.06;5046191;28;20028;-73
2023/05/22 10:59:40;;;;;;;45.70;22.90;;;;;;;25.06;61.26;101603.59;5044481;28;20025;-73
2023/05/22 11:02:20;;;;;;;42.25;22.35;;;;;;;25.29;61.53;101606.00;5039232;28;20040;-73
2023/05/22 11:04:46;;;;;;;45.83;24.48;;;;;;;25.40;61.12;101607.69;5040295;28;20146;-72
2023/05/22 11:07:13;;;;;;;46.55;23.40;;;;;;;25.13;60.92;101615.44;5040347;28;20048;-73
2023/05/22 11:09:48;;;;;;;45.53;24.33;;;;;;;25.26;60.92;101600.91;5035824;28;20037;-73
2023/05/22 11:12:27;;;;;;;40.88;24.45;;;;;;;25.13;59.97;101607.03;5032311;28;20029;-73
2023/05/22 11:14:58;;;;;;;47.08;23.85;;;;;;;25.25;60.41;101600.09;5037518;28;20029;-72
2023/05/22 11:17:39;;;;;;;45.47;23.08;;;;;;;25.08;60.79;101607.00;5038470;28;20037;-73
2023/05/22 11:20:19;;;;;;;49.00;21.73;;;;;;;25.72;59.84;101599.91;5039090;28;20488;-72
2023/05/22 11:23:09;;;;;;;44.55;21.92;;;;;;;25.38;60.38;101605.16;5037146;28;20040;-73
2023/05/22 11:25:37;;;;;;;48.97;22.35;;;;;;;25.57;60.84;101602.69;5038885;28;20037;-72
2023/05/22 11:28:04;;;;;;;42.92;21.15;;;;;;;25.92;59.49;101594.34;5039948;28;20455;-73
2023/05/22 11:30:30;;;;;;;50.40;22.58;;;;;;;25.59;60.49;101597.63;5032731;28;20036;-72
2023/05/22 11:33:00;;;;;;;46.85;22.63;;;;;;;25.88;58.54;101601.59;5038963;28;20082;-73
2023/05/22 11:35:26;;;;;;;45.95;21.70;;;;;;;25.73;59.54;101601.59;5040377;28;20040;-72
2023/05/22 11:37:52;;;;;;;46.90;21.80;;;;;;;25.74;59.15;101608.88;5037029;28;20034;-73
2023/05/22 11:40:20;;;;;;;54.00;21.35;;;;;;;25.51;58.93;101599.00;5030076;28;20067;-73
2023/05/22 11:42:46;;;;;;;53.38;22.85;;;;;;;25.46;61.04;101589.75;5031528;28;20045;-72
2023/05/22 11:45:12;;;;;;;50.03;21.30;;;;;;;25.42;60.17;101597.03;5036079;28;20390;-73
2023/05/22 11:47:38;;;;;;;41.42;20.85;;;;;;;25.48;60.38;101604.34;5036888;28;20031;-73
2023/05/22 11:50:08;;;;;;;46.33;19.73;;;;;;;25.53;60.24;101604.34;5026016;28;20520;-74
2023/05/22 11:52:36;;;;;;;49.03;18.88;;;;;;;25.53;60.20;101590.31;5037698;28;20025;-73
2023/05/22 11:55:04;;;;;;;38.08;17.80;;;;;;;25.62;59.53;101599.88;5039358;28;20291;-73
2023/05/22 11:57:30;;;;;;;47.65;19.23;;;;;;;25.35;60.30;101599.28;5036614;28;20068;-74
2023/05/22 11:59:56;;;;;;;40.83;17.40;;;;;;;25.69;59.48;101587.28;5034958;28;20036;-73
2023/05/22 12:02:22;;;;;;;42.47;18.08;;;;;;;25.81;59.17;101603.81;5031388;28;20071;-73
2023/05/22 12:04:53;;;;;;;42.07;16.93;;;;;;;25.61;59.11;101598.22;5040221;28;20484;-74